sensor_id;sensor_type;location;lat;lon;timestamp;P1;durP1;ratioP1;P2;durP2;ratioP2
8683;SDS011;4379;59.744;18.206;2022-12-07T00:01:32;3.53;;;3.20;;
8683;SDS011;4379;59.744;18.206;2022-12-07T00:04:01;4.53;;;3.73;;
8683;SDS011;4379;59.744;18.206;2022-12-07T00:06:33;3.60;;;3.30;;
8683;SDS011;4379;59.744;18.206;2022-12-07T00:09:03;3.57;;;3.37;;
8683;SDS011;4379;59.744;18.206;2022-12-07T00:11:32;7.53;;;2.97;;
8683;SDS011;4379;59.744;18.206;2022-12-07T00:14:00;3.23;;;2.57;;
8683;SDS011;4379;59.744;18.206;2022-12-07T00:16:30;3.93;;;2.90;;
8683;SDS011;4379;59.744;18.206;2022-12-07T00:18:59;4.40;;;2.50;;
8683;SDS011;4379;59.744;18.206;2022-12-07T00:21:27;4.40;;;3.10;;
8683;SDS011;4379;59.744;18.206;2022-12-07T00:23:56;4.13;;;2.83;;
8683;SDS011;4379;59.744;18.206;2022-12-07T00:28:57;4.23;;;2.50;;
8683;SDS011;4379;59.744;18.206;2022-12-07T00:31:32;2.53;;;2.30;;
8683;SDS011;4379;59.744;18.206;2022-12-07T00:34:06;3.57;;;2.50;;
8683;SDS011;4379;59.744;18.206;2022-12-07T00:36:34;2.73;;;2.43;;
8683;SDS011;4379;59.744;18.206;2022-12-07T00:39:01;2.73;;;2.47;;
8683;SDS011;4379;59.744;18.206;2022-12-07T00:41:29;2.93;;;2.50;;
8683;SDS011;4379;59.744;18.206;2022-12-07T00:43:57;2.40;;;2.17;;
8683;SDS011;4379;59.744;18.206;2022-12-07T00:46:24;4.33;;;2.50;;
8683;SDS011;4379;59.744;18.206;2022-12-07T00:48:52;3.50;;;2.13;;
8683;SDS011;4379;59.744;18.206;2022-12-07T00:51:21;4.13;;;2.37;;
8683;SDS011;4379;59.744;18.206;2022-12-07T00:53:50;2.80;;;2.33;;
8683;SDS011;4379;59.744;18.206;2022-12-07T00:56:19;2.57;;;2.37;;
8683;SDS011;4379;59.744;18.206;2022-12-07T00:58:58;4.30;;;2.50;;
8683;SDS011;4379;59.744;18.206;2022-12-07T01:01:27;2.37;;;2.17;;
8683;SDS011;4379;59.744;18.206;2022-12-07T01:03:57;2.90;;;2.07;;
8683;SDS011;4379;59.744;18.206;2022-12-07T01:06:24;2.70;;;1.83;;
8683;SDS011;4379;59.744;18.206;2022-12-07T01:08:52;2.13;;;2.00;;
8683;SDS011;4379;59.744;18.206;2022-12-07T01:11:21;2.33;;;2.13;;
8683;SDS011;4379;59.744;18.206;2022-12-07T01:13:51;2.63;;;2.10;;
8683;SDS011;4379;59.744;18.206;2022-12-07T01:16:20;3.27;;;2.10;;
8683;SDS011;4379;59.744;18.206;2022-12-07T01:18:49;5.77;;;2.13;;
8683;SDS011;4379;59.744;18.206;2022-12-07T01:21:36;2.10;;;1.90;;
8683;SDS011;4379;59.744;18.206;2022-12-07T01:24:23;3.23;;;2.43;;
8683;SDS011;4379;59.744;18.206;2022-12-07T01:26:50;3.43;;;2.50;;
8683;SDS011;4379;59.744;18.206;2022-12-07T01:29:36;1.80;;;1.70;;
8683;SDS011;4379;59.744;18.206;2022-12-07T01:32:21;2.23;;;2.03;;
8683;SDS011;4379;59.744;18.206;2022-12-07T01:35:07;4.43;;;1.93;;
8683;SDS011;4379;59.744;18.206;2022-12-07T01:37:53;2.17;;;1.77;;
8683;SDS011;4379;59.744;18.206;2022-12-07T01:40:39;1.63;;;1.53;;
8683;SDS011;4379;59.744;18.206;2022-12-07T01:43:26;2.07;;;1.97;;
8683;SDS011;4379;59.744;18.206;2022-12-07T01:45:55;1.63;;;1.53;;
8683;SDS011;4379;59.744;18.206;2022-12-07T01:48:27;4.73;;;1.80;;
8683;SDS011;4379;59.744;18.206;2022-12-07T01:51:23;2.27;;;2.07;;
8683;SDS011;4379;59.744;18.206;2022-12-07T01:54:09;1.97;;;1.87;;
8683;SDS011;4379;59.744;18.206;2022-12-07T01:56:39;2.33;;;1.70;;
8683;SDS011;4379;59.744;18.206;2022-12-07T01:59:28;3.77;;;1.87;;
8683;SDS011;4379;59.744;18.206;2022-12-07T02:02:38;3.60;;;1.83;;
8683;SDS011;4379;59.744;18.206;2022-12-07T02:05:24;4.80;;;2.33;;
8683;SDS011;4379;59.744;18.206;2022-12-07T02:07:53;5.63;;;2.33;;
8683;SDS011;4379;59.744;18.206;2022-12-07T02:10:23;4.90;;;2.10;;
8683;SDS011;4379;59.744;18.206;2022-12-07T02:12:56;4.37;;;1.90;;
8683;SDS011;4379;59.744;18.206;2022-12-07T02:15:41;2.87;;;2.17;;
8683;SDS011;4379;59.744;18.206;2022-12-07T02:18:55;2.67;;;2.00;;
8683;SDS011;4379;59.744;18.206;2022-12-07T02:27:36;2.93;;;1.87;;
8683;SDS011;4379;59.744;18.206;2022-12-07T02:30:30;2.73;;;1.73;;
8683;SDS011;4379;59.744;18.206;2022-12-07T02:33:24;1.80;;;1.70;;
8683;SDS011;4379;59.744;18.206;2022-12-07T02:35:58;3.70;;;1.60;;
8683;SDS011;4379;59.744;18.206;2022-12-07T02:38:39;2.40;;;2.00;;
8683;SDS011;4379;59.744;18.206;2022-12-07T02:41:12;1.93;;;1.77;;
8683;SDS011;4379;59.744;18.206;2022-12-07T02:44:06;3.70;;;1.77;;
8683;SDS011;4379;59.744;18.206;2022-12-07T02:46:37;1.90;;;1.80;;
8683;SDS011;4379;59.744;18.206;2022-12-07T02:49:15;2.53;;;1.43;;
8683;SDS011;4379;59.744;18.206;2022-12-07T02:52:01;2.20;;;1.40;;
8683;SDS011;4379;59.744;18.206;2022-12-07T02:54:47;2.73;;;1.60;;
8683;SDS011;4379;59.744;18.206;2022-12-07T03:02:54;4.10;;;2.17;;
8683;SDS011;4379;59.744;18.206;2022-12-07T03:11:06;2.03;;;1.60;;
8683;SDS011;4379;59.744;18.206;2022-12-07T03:13:49;1.77;;;1.47;;
8683;SDS011;4379;59.744;18.206;2022-12-07T03:16:53;2.17;;;1.23;;
8683;SDS011;4379;59.744;18.206;2022-12-07T03:19:32;1.90;;;1.43;;
8683;SDS011;4379;59.744;18.206;2022-12-07T03:22:05;1.27;;;1.23;;
8683;SDS011;4379;59.744;18.206;2022-12-07T03:25:19;3.77;;;1.70;;
8683;SDS011;4379;59.744;18.206;2022-12-07T03:27:54;7.73;;;2.07;;
8683;SDS011;4379;59.744;18.206;2022-12-07T03:30:30;2.17;;;1.73;;
8683;SDS011;4379;59.744;18.206;2022-12-07T03:33:42;3.70;;;1.53;;
8683;SDS011;4379;59.744;18.206;2022-12-07T03:39:27;6.00;;;1.90;;
8683;SDS011;4379;59.744;18.206;2022-12-07T03:42:13;3.53;;;1.50;;
8683;SDS011;4379;59.744;18.206;2022-12-07T03:44:40;5.40;;;1.63;;
8683;SDS011;4379;59.744;18.206;2022-12-07T03:47:13;2.50;;;1.57;;
8683;SDS011;4379;59.744;18.206;2022-12-07T03:52:42;2.37;;;1.30;;
8683;SDS011;4379;59.744;18.206;2022-12-07T03:55:26;1.57;;;1.47;;
8683;SDS011;4379;59.744;18.206;2022-12-07T03:58:16;2.03;;;1.40;;
8683;SDS011;4379;59.744;18.206;2022-12-07T04:01:05;1.50;;;1.03;;
8683;SDS011;4379;59.744;18.206;2022-12-07T04:03:51;1.40;;;1.30;;
8683;SDS011;4379;59.744;18.206;2022-12-07T04:06:19;1.57;;;1.47;;
8683;SDS011;4379;59.744;18.206;2022-12-07T04:08:46;2.40;;;1.20;;
8683;SDS011;4379;59.744;18.206;2022-12-07T04:11:13;1.17;;;1.13;;
8683;SDS011;4379;59.744;18.206;2022-12-07T04:13:40;1.97;;;1.53;;
8683;SDS011;4379;59.744;18.206;2022-12-07T04:16:26;1.90;;;1.43;;
8683;SDS011;4379;59.744;18.206;2022-12-07T04:18:53;2.10;;;1.73;;
8683;SDS011;4379;59.744;18.206;2022-12-07T04:21:21;3.13;;;1.47;;
8683;SDS011;4379;59.744;18.206;2022-12-07T04:23:49;1.63;;;1.53;;
8683;SDS011;4379;59.744;18.206;2022-12-07T04:26:16;3.30;;;1.60;;
8683;SDS011;4379;59.744;18.206;2022-12-07T04:28:43;2.63;;;1.40;;
8683;SDS011;4379;59.744;18.206;2022-12-07T04:31:10;1.93;;;1.67;;
8683;SDS011;4379;59.744;18.206;2022-12-07T04:33:37;3.97;;;1.57;;
8683;SDS011;4379;59.744;18.206;2022-12-07T04:36:05;2.73;;;1.50;;
8683;SDS011;4379;59.744;18.206;2022-12-07T04:38:32;5.63;;;1.90;;
8683;SDS011;4379;59.744;18.206;2022-12-07T04:41:04;2.70;;;1.73;;
8683;SDS011;4379;59.744;18.206;2022-12-07T04:43:35;4.27;;;1.70;;
8683;SDS011;4379;59.744;18.206;2022-12-07T04:46:03;8.10;;;2.03;;
8683;SDS011;4379;59.744;18.206;2022-12-07T04:48:30;5.57;;;1.40;;
8683;SDS011;4379;59.744;18.206;2022-12-07T04:50:57;3.80;;;2.00;;
8683;SDS011;4379;59.744;18.206;2022-12-07T04:53:25;1.87;;;1.40;;
8683;SDS011;4379;59.744;18.206;2022-12-07T04:55:52;1.60;;;1.50;;
8683;SDS011;4379;59.744;18.206;2022-12-07T04:58:19;2.63;;;1.50;;
8683;SDS011;4379;59.744;18.206;2022-12-07T05:00:46;3.77;;;1.70;;
8683;SDS011;4379;59.744;18.206;2022-12-07T05:03:14;1.97;;;1.50;;
8683;SDS011;4379;59.744;18.206;2022-12-07T05:05:41;1.80;;;1.70;;
8683;SDS011;4379;59.744;18.206;2022-12-07T05:08:08;3.10;;;1.30;;
8683;SDS011;4379;59.744;18.206;2022-12-07T05:10:35;1.27;;;1.00;;
8683;SDS011;4379;59.744;18.206;2022-12-07T05:13:03;1.13;;;1.03;;
8683;SDS011;4379;59.744;18.206;2022-12-07T05:15:30;2.97;;;1.30;;
8683;SDS011;4379;59.744;18.206;2022-12-07T05:17:57;1.27;;;1.17;;
8683;SDS011;4379;59.744;18.206;2022-12-07T05:20:25;3.53;;;1.60;;
8683;SDS011;4379;59.744;18.206;2022-12-07T05:22:52;1.27;;;1.17;;
8683;SDS011;4379;59.744;18.206;2022-12-07T05:25:19;1.47;;;1.27;;
8683;SDS011;4379;59.744;18.206;2022-12-07T05:27:46;2.27;;;1.20;;
8683;SDS011;4379;59.744;18.206;2022-12-07T05:30:14;3.17;;;1.47;;
8683;SDS011;4379;59.744;18.206;2022-12-07T05:32:41;2.23;;;1.40;;
8683;SDS011;4379;59.744;18.206;2022-12-07T05:35:09;1.20;;;1.10;;
8683;SDS011;4379;59.744;18.206;2022-12-07T05:37:36;1.53;;;1.43;;
8683;SDS011;4379;59.744;18.206;2022-12-07T05:40:04;1.60;;;1.50;;
8683;SDS011;4379;59.744;18.206;2022-12-07T05:42:32;1.80;;;1.43;;
8683;SDS011;4379;59.744;18.206;2022-12-07T05:44:59;1.70;;;1.20;;
8683;SDS011;4379;59.744;18.206;2022-12-07T05:47:27;1.60;;;1.37;;
8683;SDS011;4379;59.744;18.206;2022-12-07T05:49:54;3.63;;;1.10;;
8683;SDS011;4379;59.744;18.206;2022-12-07T05:52:21;2.73;;;1.13;;
8683;SDS011;4379;59.744;18.206;2022-12-07T05:54:48;1.83;;;1.30;;
8683;SDS011;4379;59.744;18.206;2022-12-07T05:57:16;2.47;;;1.57;;
8683;SDS011;4379;59.744;18.206;2022-12-07T05:59:43;1.47;;;1.37;;
8683;SDS011;4379;59.744;18.206;2022-12-07T06:02:12;2.17;;;1.23;;
8683;SDS011;4379;59.744;18.206;2022-12-07T06:04:42;1.90;;;1.50;;
8683;SDS011;4379;59.744;18.206;2022-12-07T06:07:13;2.57;;;1.27;;
8683;SDS011;4379;59.744;18.206;2022-12-07T06:09:41;3.37;;;1.17;;
8683;SDS011;4379;59.744;18.206;2022-12-07T06:12:09;1.23;;;1.13;;
8683;SDS011;4379;59.744;18.206;2022-12-07T06:14:56;2.23;;;1.20;;
8683;SDS011;4379;59.744;18.206;2022-12-07T06:17:24;2.30;;;1.60;;
8683;SDS011;4379;59.744;18.206;2022-12-07T06:19:51;1.73;;;1.63;;
8683;SDS011;4379;59.744;18.206;2022-12-07T06:22:19;1.67;;;1.40;;
8683;SDS011;4379;59.744;18.206;2022-12-07T06:24:46;2.73;;;1.53;;
8683;SDS011;4379;59.744;18.206;2022-12-07T06:27:13;1.87;;;1.27;;
8683;SDS011;4379;59.744;18.206;2022-12-07T06:29:40;1.60;;;1.50;;
8683;SDS011;4379;59.744;18.206;2022-12-07T06:32:07;2.23;;;1.37;;
8683;SDS011;4379;59.744;18.206;2022-12-07T06:34:35;1.17;;;1.07;;
8683;SDS011;4379;59.744;18.206;2022-12-07T06:37:03;1.07;;;0.93;;
8683;SDS011;4379;59.744;18.206;2022-12-07T06:39:30;2.03;;;1.20;;
8683;SDS011;4379;59.744;18.206;2022-12-07T06:41:58;3.40;;;1.20;;
8683;SDS011;4379;59.744;18.206;2022-12-07T06:44:25;1.43;;;1.23;;
8683;SDS011;4379;59.744;18.206;2022-12-07T06:46:53;1.93;;;1.43;;
8683;SDS011;4379;59.744;18.206;2022-12-07T06:49:41;5.33;;;1.80;;
8683;SDS011;4379;59.744;18.206;2022-12-07T06:52:08;2.30;;;1.40;;
8683;SDS011;4379;59.744;18.206;2022-12-07T06:54:35;1.50;;;1.40;;
8683;SDS011;4379;59.744;18.206;2022-12-07T06:57:02;2.13;;;1.10;;
8683;SDS011;4379;59.744;18.206;2022-12-07T06:59:30;2.30;;;1.40;;
8683;SDS011;4379;59.744;18.206;2022-12-07T07:01:57;1.63;;;1.40;;
8683;SDS011;4379;59.744;18.206;2022-12-07T07:04:24;2.37;;;1.23;;
8683;SDS011;4379;59.744;18.206;2022-12-07T07:06:52;1.67;;;1.20;;
8683;SDS011;4379;59.744;18.206;2022-12-07T07:09:25;1.93;;;1.20;;
8683;SDS011;4379;59.744;18.206;2022-12-07T07:11:53;1.20;;;1.00;;
8683;SDS011;4379;59.744;18.206;2022-12-07T07:14:20;2.33;;;0.80;;
8683;SDS011;4379;59.744;18.206;2022-12-07T07:16:48;2.17;;;1.10;;
8683;SDS011;4379;59.744;18.206;2022-12-07T07:19:15;4.03;;;1.37;;
8683;SDS011;4379;59.744;18.206;2022-12-07T07:21:43;1.93;;;1.30;;
8683;SDS011;4379;59.744;18.206;2022-12-07T07:24:10;4.90;;;1.60;;
8683;SDS011;4379;59.744;18.206;2022-12-07T07:26:37;5.33;;;1.13;;
8683;SDS011;4379;59.744;18.206;2022-12-07T07:29:04;3.43;;;1.43;;
8683;SDS011;4379;59.744;18.206;2022-12-07T07:31:32;2.37;;;0.87;;
8683;SDS011;4379;59.744;18.206;2022-12-07T07:34:02;1.20;;;1.00;;
8683;SDS011;4379;59.744;18.206;2022-12-07T07:36:29;1.27;;;1.17;;
8683;SDS011;4379;59.744;18.206;2022-12-07T07:38:56;1.80;;;1.03;;
8683;SDS011;4379;59.744;18.206;2022-12-07T07:41:24;1.00;;;0.93;;
8683;SDS011;4379;59.744;18.206;2022-12-07T07:43:51;2.77;;;1.20;;
8683;SDS011;4379;59.744;18.206;2022-12-07T07:46:18;3.03;;;1.13;;
8683;SDS011;4379;59.744;18.206;2022-12-07T07:48:46;2.60;;;1.00;;
8683;SDS011;4379;59.744;18.206;2022-12-07T07:51:13;1.20;;;1.00;;
8683;SDS011;4379;59.744;18.206;2022-12-07T07:53:40;1.17;;;1.07;;
8683;SDS011;4379;59.744;18.206;2022-12-07T07:56:08;1.20;;;1.10;;
8683;SDS011;4379;59.744;18.206;2022-12-07T07:58:35;1.83;;;1.20;;
8683;SDS011;4379;59.744;18.206;2022-12-07T08:01:06;1.70;;;1.00;;
8683;SDS011;4379;59.744;18.206;2022-12-07T08:03:34;1.20;;;1.10;;
8683;SDS011;4379;59.744;18.206;2022-12-07T08:06:04;0.90;;;0.90;;
8683;SDS011;4379;59.744;18.206;2022-12-07T08:08:32;1.57;;;1.20;;
8683;SDS011;4379;59.744;18.206;2022-12-07T08:10:59;2.73;;;1.30;;
8683;SDS011;4379;59.744;18.206;2022-12-07T08:13:28;2.73;;;1.20;;
8683;SDS011;4379;59.744;18.206;2022-12-07T08:15:57;2.90;;;1.10;;
8683;SDS011;4379;59.744;18.206;2022-12-07T08:18:24;1.77;;;1.30;;
8683;SDS011;4379;59.744;18.206;2022-12-07T08:20:52;3.23;;;1.13;;
8683;SDS011;4379;59.744;18.206;2022-12-07T08:23:25;1.50;;;0.90;;
8683;SDS011;4379;59.744;18.206;2022-12-07T08:26:05;3.33;;;1.00;;
8683;SDS011;4379;59.744;18.206;2022-12-07T08:28:34;3.40;;;1.60;;
8683;SDS011;4379;59.744;18.206;2022-12-07T08:31:03;3.00;;;1.37;;
8683;SDS011;4379;59.744;18.206;2022-12-07T08:33:35;4.27;;;1.57;;
8683;SDS011;4379;59.744;18.206;2022-12-07T08:36:03;4.67;;;1.50;;
8683;SDS011;4379;59.744;18.206;2022-12-07T08:38:33;1.37;;;1.13;;
8683;SDS011;4379;59.744;18.206;2022-12-07T08:41:01;4.43;;;1.10;;
8683;SDS011;4379;59.744;18.206;2022-12-07T08:43:28;1.20;;;1.10;;
8683;SDS011;4379;59.744;18.206;2022-12-07T08:46:09;2.23;;;1.27;;
8683;SDS011;4379;59.744;18.206;2022-12-07T08:48:48;1.73;;;1.10;;
8683;SDS011;4379;59.744;18.206;2022-12-07T08:51:15;1.53;;;1.30;;
8683;SDS011;4379;59.744;18.206;2022-12-07T08:53:43;1.00;;;1.00;;
8683;SDS011;4379;59.744;18.206;2022-12-07T08:56:11;1.47;;;1.37;;
8683;SDS011;4379;59.744;18.206;2022-12-07T08:58:39;1.87;;;0.93;;
8683;SDS011;4379;59.744;18.206;2022-12-07T09:01:08;2.10;;;1.00;;
8683;SDS011;4379;59.744;18.206;2022-12-07T09:03:35;4.87;;;1.23;;
8683;SDS011;4379;59.744;18.206;2022-12-07T09:06:02;3.40;;;1.10;;
8683;SDS011;4379;59.744;18.206;2022-12-07T09:08:32;2.20;;;1.30;;
8683;SDS011;4379;59.744;18.206;2022-12-07T09:11:05;1.07;;;1.07;;
8683;SDS011;4379;59.744;18.206;2022-12-07T09:13:33;2.83;;;1.00;;
8683;SDS011;4379;59.744;18.206;2022-12-07T09:16:00;2.10;;;0.90;;
8683;SDS011;4379;59.744;18.206;2022-12-07T09:18:27;3.07;;;1.10;;
8683;SDS011;4379;59.744;18.206;2022-12-07T09:20:55;1.40;;;1.20;;
8683;SDS011;4379;59.744;18.206;2022-12-07T09:23:23;1.13;;;1.03;;
8683;SDS011;4379;59.744;18.206;2022-12-07T09:25:50;0.90;;;0.90;;
8683;SDS011;4379;59.744;18.206;2022-12-07T09:28:17;2.57;;;1.47;;
8683;SDS011;4379;59.744;18.206;2022-12-07T09:30:48;2.27;;;1.57;;
8683;SDS011;4379;59.744;18.206;2022-12-07T09:33:36;4.00;;;1.20;;
8683;SDS011;4379;59.744;18.206;2022-12-07T09:36:03;2.40;;;1.00;;
8683;SDS011;4379;59.744;18.206;2022-12-07T09:38:31;1.37;;;1.17;;
8683;SDS011;4379;59.744;18.206;2022-12-07T09:41:03;1.30;;;1.20;;
8683;SDS011;4379;59.744;18.206;2022-12-07T09:43:34;2.37;;;1.53;;
8683;SDS011;4379;59.744;18.206;2022-12-07T09:46:03;4.07;;;1.27;;
8683;SDS011;4379;59.744;18.206;2022-12-07T09:48:36;2.00;;;0.93;;
8683;SDS011;4379;59.744;18.206;2022-12-07T09:51:18;2.50;;;1.23;;
8683;SDS011;4379;59.744;18.206;2022-12-07T09:53:51;1.17;;;1.00;;
8683;SDS011;4379;59.744;18.206;2022-12-07T09:56:20;2.43;;;1.30;;
8683;SDS011;4379;59.744;18.206;2022-12-07T09:58:49;1.57;;;1.20;;
8683;SDS011;4379;59.744;18.206;2022-12-07T10:01:21;2.50;;;1.07;;
8683;SDS011;4379;59.744;18.206;2022-12-07T10:03:52;1.80;;;1.10;;
8683;SDS011;4379;59.744;18.206;2022-12-07T10:06:21;3.67;;;1.77;;
8683;SDS011;4379;59.744;18.206;2022-12-07T10:08:48;2.17;;;1.27;;
8683;SDS011;4379;59.744;18.206;2022-12-07T10:11:16;1.87;;;1.33;;
8683;SDS011;4379;59.744;18.206;2022-12-07T10:13:45;1.63;;;1.03;;
8683;SDS011;4379;59.744;18.206;2022-12-07T10:16:37;2.10;;;1.20;;
8683;SDS011;4379;59.744;18.206;2022-12-07T10:19:19;1.33;;;1.00;;
8683;SDS011;4379;59.744;18.206;2022-12-07T10:22:00;1.50;;;1.10;;
8683;SDS011;4379;59.744;18.206;2022-12-07T10:24:28;2.00;;;1.30;;
8683;SDS011;4379;59.744;18.206;2022-12-07T10:26:56;2.57;;;1.00;;
8683;SDS011;4379;59.744;18.206;2022-12-07T10:29:31;1.00;;;1.00;;
8683;SDS011;4379;59.744;18.206;2022-12-07T10:32:02;2.10;;;1.10;;
8683;SDS011;4379;59.744;18.206;2022-12-07T10:37:48;1.43;;;0.93;;
8683;SDS011;4379;59.744;18.206;2022-12-07T10:40:33;0.87;;;0.80;;
8683;SDS011;4379;59.744;18.206;2022-12-07T10:45:32;1.27;;;1.10;;
8683;SDS011;4379;59.744;18.206;2022-12-07T10:48:29;0.80;;;0.80;;
8683;SDS011;4379;59.744;18.206;2022-12-07T10:56:51;1.60;;;1.03;;
8683;SDS011;4379;59.744;18.206;2022-12-07T11:10:41;1.53;;;1.10;;
8683;SDS011;4379;59.744;18.206;2022-12-07T11:13:19;1.33;;;1.17;;
8683;SDS011;4379;59.744;18.206;2022-12-07T11:18:32;1.50;;;1.40;;
8683;SDS011;4379;59.744;18.206;2022-12-07T11:21:19;1.27;;;1.17;;
8683;SDS011;4379;59.744;18.206;2022-12-07T11:32:23;3.00;;;1.30;;
8683;SDS011;4379;59.744;18.206;2022-12-07T11:38:22;1.20;;;1.10;;
8683;SDS011;4379;59.744;18.206;2022-12-07T11:41:03;1.70;;;1.60;;
8683;SDS011;4379;59.744;18.206;2022-12-07T11:43:52;1.57;;;1.47;;
8683;SDS011;4379;59.744;18.206;2022-12-07T11:46:24;1.87;;;1.30;;
8683;SDS011;4379;59.744;18.206;2022-12-07T11:51:39;1.00;;;1.00;;
8683;SDS011;4379;59.744;18.206;2022-12-07T11:54:11;1.30;;;1.20;;
8683;SDS011;4379;59.744;18.206;2022-12-07T11:56:46;3.63;;;1.57;;
8683;SDS011;4379;59.744;18.206;2022-12-07T12:02:15;3.47;;;1.47;;
8683;SDS011;4379;59.744;18.206;2022-12-07T12:05:12;2.57;;;1.20;;
8683;SDS011;4379;59.744;18.206;2022-12-07T12:07:50;3.03;;;1.93;;
8683;SDS011;4379;59.744;18.206;2022-12-07T12:11:08;1.50;;;1.40;;
8683;SDS011;4379;59.744;18.206;2022-12-07T12:14:12;2.40;;;2.10;;
8683;SDS011;4379;59.744;18.206;2022-12-07T12:17:07;1.63;;;1.53;;
8683;SDS011;4379;59.744;18.206;2022-12-07T12:19:42;1.57;;;1.40;;
8683;SDS011;4379;59.744;18.206;2022-12-07T12:22:45;1.57;;;1.47;;
8683;SDS011;4379;59.744;18.206;2022-12-07T12:25:28;1.27;;;1.10;;
8683;SDS011;4379;59.744;18.206;2022-12-07T12:28:02;2.83;;;1.50;;
8683;SDS011;4379;59.744;18.206;2022-12-07T12:33:03;1.77;;;1.17;;
8683;SDS011;4379;59.744;18.206;2022-12-07T12:40:54;1.27;;;0.87;;
8683;SDS011;4379;59.744;18.206;2022-12-07T12:51:42;2.30;;;1.33;;
8683;SDS011;4379;59.744;18.206;2022-12-07T12:54:29;1.30;;;1.20;;
8683;SDS011;4379;59.744;18.206;2022-12-07T12:57:06;2.57;;;1.73;;
8683;SDS011;4379;59.744;18.206;2022-12-07T13:02:23;2.10;;;1.20;;
8683;SDS011;4379;59.744;18.206;2022-12-07T13:04:56;3.33;;;1.50;;
8683;SDS011;4379;59.744;18.206;2022-12-07T13:15:47;1.80;;;1.07;;
8683;SDS011;4379;59.744;18.206;2022-12-07T13:28:47;1.63;;;1.20;;
8683;SDS011;4379;59.744;18.206;2022-12-07T13:31:45;3.23;;;1.20;;
8683;SDS011;4379;59.744;18.206;2022-12-07T13:34:37;2.57;;;1.37;;
8683;SDS011;4379;59.744;18.206;2022-12-07T13:40:17;1.13;;;1.03;;
8683;SDS011;4379;59.744;18.206;2022-12-07T13:42:47;1.13;;;0.93;;
8683;SDS011;4379;59.744;18.206;2022-12-07T13:45:32;1.60;;;1.30;;
8683;SDS011;4379;59.744;18.206;2022-12-07T13:48:29;1.80;;;1.20;;
8683;SDS011;4379;59.744;18.206;2022-12-07T13:51:02;2.40;;;1.30;;
8683;SDS011;4379;59.744;18.206;2022-12-07T13:53:30;3.13;;;1.20;;
8683;SDS011;4379;59.744;18.206;2022-12-07T13:55:58;2.50;;;1.40;;
8683;SDS011;4379;59.744;18.206;2022-12-07T13:58:27;1.80;;;1.67;;
8683;SDS011;4379;59.744;18.206;2022-12-07T14:00:57;1.77;;;1.33;;
8683;SDS011;4379;59.744;18.206;2022-12-07T14:03:30;1.17;;;1.07;;
8683;SDS011;4379;59.744;18.206;2022-12-07T14:06:06;2.53;;;1.20;;
8683;SDS011;4379;59.744;18.206;2022-12-07T14:08:46;2.53;;;1.23;;
8683;SDS011;4379;59.744;18.206;2022-12-07T14:11:17;1.73;;;1.10;;
8683;SDS011;4379;59.744;18.206;2022-12-07T14:16:27;0.90;;;0.90;;
8683;SDS011;4379;59.744;18.206;2022-12-07T14:19:03;1.23;;;1.13;;
8683;SDS011;4379;59.744;18.206;2022-12-07T14:21:34;2.97;;;1.47;;
8683;SDS011;4379;59.744;18.206;2022-12-07T14:24:09;2.40;;;1.03;;
8683;SDS011;4379;59.744;18.206;2022-12-07T14:26:45;0.90;;;0.90;;
8683;SDS011;4379;59.744;18.206;2022-12-07T14:31:47;1.10;;;1.10;;
8683;SDS011;4379;59.744;18.206;2022-12-07T14:34:14;2.30;;;1.20;;
8683;SDS011;4379;59.744;18.206;2022-12-07T14:36:42;5.53;;;1.23;;
8683;SDS011;4379;59.744;18.206;2022-12-07T14:39:09;1.47;;;1.37;;
8683;SDS011;4379;59.744;18.206;2022-12-07T14:41:39;1.00;;;0.90;;
8683;SDS011;4379;59.744;18.206;2022-12-07T14:44:19;1.23;;;1.10;;
8683;SDS011;4379;59.744;18.206;2022-12-07T14:46:54;1.17;;;1.07;;
8683;SDS011;4379;59.744;18.206;2022-12-07T14:49:42;2.87;;;1.23;;
8683;SDS011;4379;59.744;18.206;2022-12-07T14:52:33;1.20;;;1.10;;
8683;SDS011;4379;59.744;18.206;2022-12-07T14:55:27;0.93;;;0.83;;
8683;SDS011;4379;59.744;18.206;2022-12-07T14:57:56;1.40;;;1.17;;
8683;SDS011;4379;59.744;18.206;2022-12-07T15:00:25;0.97;;;0.90;;
8683;SDS011;4379;59.744;18.206;2022-12-07T15:02:53;2.00;;;1.13;;
8683;SDS011;4379;59.744;18.206;2022-12-07T15:05:21;1.20;;;1.10;;
8683;SDS011;4379;59.744;18.206;2022-12-07T15:07:49;1.40;;;1.27;;
8683;SDS011;4379;59.744;18.206;2022-12-07T15:10:18;1.93;;;1.13;;
8683;SDS011;4379;59.744;18.206;2022-12-07T15:12:58;1.77;;;1.03;;
8683;SDS011;4379;59.744;18.206;2022-12-07T15:15:47;1.70;;;1.50;;
8683;SDS011;4379;59.744;18.206;2022-12-07T15:18:16;2.30;;;1.17;;
8683;SDS011;4379;59.744;18.206;2022-12-07T15:20:45;1.73;;;1.20;;
8683;SDS011;4379;59.744;18.206;2022-12-07T15:23:13;2.30;;;1.20;;
8683;SDS011;4379;59.744;18.206;2022-12-07T15:25:40;1.40;;;0.80;;
8683;SDS011;4379;59.744;18.206;2022-12-07T15:28:12;1.30;;;1.20;;
8683;SDS011;4379;59.744;18.206;2022-12-07T15:30:43;1.47;;;1.10;;
8683;SDS011;4379;59.744;18.206;2022-12-07T15:33:12;2.90;;;1.27;;
8683;SDS011;4379;59.744;18.206;2022-12-07T15:35:43;1.37;;;1.17;;
8683;SDS011;4379;59.744;18.206;2022-12-07T15:38:11;1.20;;;1.10;;
8683;SDS011;4379;59.744;18.206;2022-12-07T15:40:39;2.70;;;1.40;;
8683;SDS011;4379;59.744;18.206;2022-12-07T15:43:08;1.43;;;1.33;;
8683;SDS011;4379;59.744;18.206;2022-12-07T15:45:56;1.23;;;1.10;;
8683;SDS011;4379;59.744;18.206;2022-12-07T15:48:23;2.20;;;1.40;;
8683;SDS011;4379;59.744;18.206;2022-12-07T15:51:00;1.60;;;1.50;;
8683;SDS011;4379;59.744;18.206;2022-12-07T15:53:29;1.63;;;1.03;;
8683;SDS011;4379;59.744;18.206;2022-12-07T15:55:57;2.13;;;1.43;;
8683;SDS011;4379;59.744;18.206;2022-12-07T15:58:24;1.83;;;1.00;;
8683;SDS011;4379;59.744;18.206;2022-12-07T16:00:52;1.63;;;1.33;;
8683;SDS011;4379;59.744;18.206;2022-12-07T16:03:19;1.17;;;0.90;;
8683;SDS011;4379;59.744;18.206;2022-12-07T16:05:50;1.57;;;1.20;;
8683;SDS011;4379;59.744;18.206;2022-12-07T16:08:18;1.27;;;1.17;;
8683;SDS011;4379;59.744;18.206;2022-12-07T16:10:46;4.23;;;1.37;;
8683;SDS011;4379;59.744;18.206;2022-12-07T16:13:13;0.90;;;0.90;;
8683;SDS011;4379;59.744;18.206;2022-12-07T16:15:41;3.53;;;1.10;;
8683;SDS011;4379;59.744;18.206;2022-12-07T16:18:09;1.30;;;1.20;;
8683;SDS011;4379;59.744;18.206;2022-12-07T16:20:37;2.00;;;0.90;;
8683;SDS011;4379;59.744;18.206;2022-12-07T16:23:04;1.73;;;1.43;;
8683;SDS011;4379;59.744;18.206;2022-12-07T16:25:32;2.30;;;1.00;;
8683;SDS011;4379;59.744;18.206;2022-12-07T16:27:59;1.83;;;0.93;;
8683;SDS011;4379;59.744;18.206;2022-12-07T16:30:27;1.00;;;1.00;;
8683;SDS011;4379;59.744;18.206;2022-12-07T16:32:54;1.00;;;0.90;;
8683;SDS011;4379;59.744;18.206;2022-12-07T16:35:27;2.93;;;1.13;;
8683;SDS011;4379;59.744;18.206;2022-12-07T16:37:55;1.30;;;1.17;;
8683;SDS011;4379;59.744;18.206;2022-12-07T16:40:22;1.20;;;1.07;;
8683;SDS011;4379;59.744;18.206;2022-12-07T16:42:49;0.93;;;0.93;;
8683;SDS011;4379;59.744;18.206;2022-12-07T16:45:17;0.90;;;0.80;;
8683;SDS011;4379;59.744;18.206;2022-12-07T16:47:46;3.40;;;0.90;;
8683;SDS011;4379;59.744;18.206;2022-12-07T16:50:13;1.23;;;1.13;;
8683;SDS011;4379;59.744;18.206;2022-12-07T16:52:41;2.70;;;0.90;;
8683;SDS011;4379;59.744;18.206;2022-12-07T16:55:08;0.83;;;0.83;;
8683;SDS011;4379;59.744;18.206;2022-12-07T16:57:35;1.37;;;0.93;;
8683;SDS011;4379;59.744;18.206;2022-12-07T17:00:03;1.07;;;1.07;;
8683;SDS011;4379;59.744;18.206;2022-12-07T17:02:30;1.97;;;1.10;;
8683;SDS011;4379;59.744;18.206;2022-12-07T17:04:58;1.43;;;1.20;;
8683;SDS011;4379;59.744;18.206;2022-12-07T17:07:26;1.57;;;1.00;;
8683;SDS011;4379;59.744;18.206;2022-12-07T17:09:53;2.00;;;0.90;;
8683;SDS011;4379;59.744;18.206;2022-12-07T17:12:20;1.60;;;1.27;;
8683;SDS011;4379;59.744;18.206;2022-12-07T17:14:48;0.93;;;0.93;;
8683;SDS011;4379;59.744;18.206;2022-12-07T17:17:34;3.63;;;1.20;;
8683;SDS011;4379;59.744;18.206;2022-12-07T17:20:01;2.07;;;0.80;;
8683;SDS011;4379;59.744;18.206;2022-12-07T17:22:30;2.40;;;1.00;;
8683;SDS011;4379;59.744;18.206;2022-12-07T17:24:57;1.80;;;0.70;;
8683;SDS011;4379;59.744;18.206;2022-12-07T17:27:25;0.87;;;0.87;;
8683;SDS011;4379;59.744;18.206;2022-12-07T17:29:52;0.93;;;0.90;;